Vigil, Colorado
Current Conditions -  °F | °C
As of 7:11 AM on Sunday 21 Dec 2014 (Local Time) from KVTP Reporting Station
Clear Clear  
Wind Chill:   Ceiling: Unl
Heat Index: 21°   Visibility: 10mi
Dew Point: 18°   Wind: 21mph
Humidity: 86%   Direction: 200°SSW
Pressure: 29.83"   Gusts: NA
Location:  37.1566°N, 104.956°W
Report Text: KVTP 211411Z AUTO 20018KT 170V250 10SM CLR M06/M08 A2983 RMK AO2
Loading
Personal Weather Stations






























Interactive Weather Map New forecast layout! Learn more

10-Day Weather Forecast

Advertisements
Track Severe Weather on mobile